Main page
METAR-TAF:

METAR-TAF

Airports :

Wiener Neustadt East Airport

Wiener Neustadt, Austria

latitude: 47-50-36N, longitude: 016-15-29E, elevation: 272 m

Current weather observation

The report was made 10 hours and 57 minutes ago, at 15:00 UTC
Calm wind
Temperature
Pressure

METAR: LOAN 181500Z 00000KT 13KM SCT050SC BKN070SC

Time: 02:57 (01:57 UTC)

Forecast

The report was made 14 hours and 32 minutes ago, at 11:25 UTC
Forecast valid from 18 at 12 UTC to 18 at 21 UTC
Wind 4 kt from the North/Northeast
Visibility 10 km or more
Few clouds at a height of 4000 ft
Broken clouds at a height of 7000 ft

TAF: LOAN 181125Z 1812/1821 03004KT 9999 FEW040 BKN070

Weather observations and forecasts of more than 4000 airports (METAR and TAF reports).

The available stations are represented by yellow and red dots on the map.

Hover mouse over dot to see the name of the station.

Then click to see weather observations and forecasts.

To change the map : click on the green buttons with a black cross to zoom in, on the green button with a dash to zoom out, or on the green arrows for adjacent maps.


METAR-TAF: